Ransom Canyon, Texas
Current Conditions -  °F | °C
As of 8:53 AM on Thursday 30 Oct 2014 (Local Time) from KLBB Reporting Station
Clear Clear  
Wind Chill: 10°   Ceiling: Unl
Heat Index: 10°   Visibility: 8mi
Dew Point:   Wind: 6mph
Humidity: 86%   Direction: 300°WNW
Pressure: 30.14"   Gusts: NA
Location:  33.53°N, 101.68°W
Report Text: KLBB 301353Z 30005KT 8SM CLR 10/08 A3014 RMK AO2 SLP182 T01000078
Loading
Personal Weather Stations






























Interactive Weather Map
Tropical Storm Tracking
New forecast layout! Learn more

10-Day Weather Forecast

Advertisements
Track Severe Weather on mobile